Time;durP1;ratioP1;P1;durP2;ratioP2;P2;SDS_P1;SDS_P2;PMS_P1;PMS_P2;Temp;Humidity;BMP_temperature;BMP_pressure;BME280_temperature;BME280_humidity;BME280_pressure;Samples;Min_cycle;Max_cycle;Signal;HPM_P1;HPM_P2
2024/01/04 00:00:38;;;;;;;11.23;3.37;;;;;;;8.41;92.27;96575.56;4350755;33;20058;-81
2024/01/04 00:03:05;;;;;;;9.00;3.42;;;;;;;8.10;94.80;96569.56;4350796;33;20109;-81
2024/01/04 00:05:32;;;;;;;11.12;3.58;;;;;;;8.04;95.01;96557.03;4350780;32;20161;-80
2024/01/04 00:07:58;;;;;;;12.02;3.60;;;;;;;8.16;94.92;96562.41;4350609;32;20099;-81
2024/01/04 00:10:25;;;;;;;;;;;;;;;8.54;92.68;96562.81;4351128;32;20428;-81
2024/01/04 00:12:53;;;;;;;14.65;3.80;;;;;;;7.79;96.18;96570.44;4350939;33;20031;-81
2024/01/04 00:15:20;;;;;;;11.82;3.90;;;;;;;7.58;96.13;96586.19;4350199;32;20091;-81
2024/01/04 00:17:47;;;;;;;12.43;3.45;;;;;;;8.36;92.73;96588.66;4350882;32;20114;-81
2024/01/04 00:20:14;;;;;;;14.32;3.40;;;;;;;8.50;89.85;96590.41;4350873;32;20150;-81
2024/01/04 00:22:41;;;;;;;;;;;;;;;8.41;89.71;96593.53;4350734;32;20431;-81
2024/01/04 00:25:09;;;;;;;10.77;4.47;;;;;;;8.15;92.56;96589.00;4350585;33;20026;-80
2024/01/04 00:27:36;;;;;;;11.45;3.55;;;;;;;8.24;92.64;96584.19;4350548;32;20100;-81
2024/01/04 00:30:04;;;;;;;9.20;3.42;;;;;;;8.41;91.43;96580.69;4350534;33;20462;-81
2024/01/04 00:32:31;;;;;;;12.13;3.37;;;;;;;8.57;91.02;96578.06;4350790;32;20125;-81
2024/01/04 00:34:58;;;;;;;10.20;3.28;;;;;;;8.86;89.21;96566.06;4350249;32;20167;-81
2024/01/04 00:37:24;;;;;;;14.35;3.75;;;;;;;8.35;91.50;96566.44;4350707;33;20104;-81
2024/01/04 00:39:51;;;;;;;12.85;3.72;;;;;;;8.62;90.92;96569.16;4350852;32;20142;-81
2024/01/04 00:42:18;;;;;;;;;;;;;;;8.58;90.50;96574.56;4350595;32;20095;-81
2024/01/04 00:44:45;;;;;;;9.35;3.62;;;;;;;8.49;91.47;96586.19;4349531;33;19970;-81
2024/01/04 00:47:12;;;;;;;10.40;3.67;;;;;;;8.62;90.64;96594.87;4350508;32;20103;-81
2024/01/04 00:49:39;;;;;;;9.30;3.37;;;;;;;8.74;90.10;96595.09;4350387;32;20739;-81
2024/01/04 00:52:05;;;;;;;12.37;3.78;;;;;;;8.38;91.99;96591.97;4350658;33;20122;-81
2024/01/04 00:54:32;;;;;;;9.23;3.58;;;;;;;8.60;92.93;96588.97;4350525;32;20493;-81
2024/01/04 00:56:59;;;;;;;;;;;;;;;8.38;95.38;96591.97;4350393;32;20104;-81
2024/01/04 00:59:26;;;;;;;10.75;3.37;;;;;;;8.55;95.09;96593.56;4350682;33;19971;-81
2024/01/04 01:01:53;;;;;;;10.32;3.75;;;;;;;8.69;94.30;96593.59;4350474;32;20080;-81
2024/01/04 01:04:20;;;;;;;12.88;3.60;;;;;;;8.68;93.68;96593.69;4350148;33;20103;-81
2024/01/04 01:06:46;;;;;;;;;;;;;;;8.65;92.28;96588.72;4350544;32;20485;-80
2024/01/04 01:09:14;;;;;;;12.77;3.72;;;;;;;8.44;93.20;96595.94;4350733;33;20025;-80
2024/01/04 01:11:41;;;;;;;15.05;4.03;;;;;;;8.25;94.13;96582.44;4350155;32;20092;-81
2024/01/04 01:14:09;;;;;;;11.77;3.80;;;;;;;8.25;94.10;96585.00;4350419;32;20115;-81
2024/01/04 01:16:35;;;;;;;9.93;3.58;;;;;;;8.27;94.01;96578.03;4349782;32;20107;-81
2024/01/04 01:19:03;;;;;;;11.32;3.72;;;;;;;8.38;93.12;96580.84;4350556;33;20147;-82
2024/01/04 01:21:30;;;;;;;12.37;4.32;;;;;;;8.21;93.33;96568.12;4350413;32;20087;-81
2024/01/04 01:23:57;;;;;;;;;;;;;;;8.09;94.48;96562.75;4350232;32;20105;-82
2024/01/04 01:26:24;;;;;;;10.38;3.53;;;;;;;8.16;94.66;96563.22;4350319;33;19997;-82
2024/01/04 01:28:50;;;;;;;;;;;;;;;8.15;94.52;96560.75;4350847;32;20091;-81
2024/01/04 01:31:17;;;;;;;15.18;4.03;;;;;;;8.18;94.18;96563.97;4350241;33;19967;-81
2024/01/04 01:33:45;;;;;;;12.70;4.07;;;;;;;8.15;94.16;96556.44;4350381;33;20091;-81
2024/01/04 01:36:12;;;;;;;13.90;3.75;;;;;;;8.17;93.42;96562.31;4350137;32;20785;-81
2024/01/04 01:38:39;;;;;;;14.15;3.53;;;;;;;8.24;93.72;96555.09;4350062;32;20092;-82
2024/01/04 01:41:06;;;;;;;12.52;4.68;;;;;;;8.16;93.59;96555.53;4350399;32;20083;-81
2024/01/04 01:43:33;;;;;;;11.52;3.90;;;;;;;8.17;94.12;96557.16;4348282;33;20458;-81
2024/01/04 01:46:00;;;;;;;;;;;;;;;8.16;94.92;96563.22;4350011;32;20104;-81
2024/01/04 01:48:27;;;;;;;10.93;3.70;;;;;;;8.02;95.95;96564.00;4349257;33;19974;-81
2024/01/04 01:50:54;;;;;;;14.98;3.42;;;;;;;8.04;95.83;96572.44;4350320;33;20340;-81
2024/01/04 01:53:21;;;;;;;11.38;3.65;;;;;;;8.01;96.30;96571.81;4348803;33;20103;-81
2024/01/04 01:55:49;;;;;;;11.23;3.87;;;;;;;8.19;94.55;96573.34;4350012;32;20100;-81
2024/01/04 01:58:15;;;;;;;10.77;4.22;;;;;;;8.14;93.70;96565.06;4349144;33;20096;-81
2024/01/04 02:00:43;;;;;;;11.48;3.65;;;;;;;8.01;94.07;96570.06;4348711;33;20087;-81
2024/01/04 02:03:10;;;;;;;11.27;3.90;;;;;;;8.17;93.59;96569.19;4350063;32;20494;-82
2024/01/04 02:05:37;;;;;;;11.52;4.05;;;;;;;8.21;93.12;96571.50;4360815;32;20095;-81
2024/01/04 02:08:05;;;;;;;16.50;4.50;;;;;;;7.97;94.49;96560.84;4350232;32;20462;-81
2024/01/04 02:10:32;;;;;;;14.68;3.87;;;;;;;7.76;95.60;96551.78;4350145;32;20370;-81
2024/01/04 02:12:59;;;;;;;11.75;3.72;;;;;;;7.38;99.51;96556.44;4349683;33;20114;-81
2024/01/04 02:15:26;;;;;;;13.80;3.92;;;;;;;7.74;98.00;96549.28;4349757;32;20103;-80
2024/01/04 02:17:52;;;;;;;;;;;;;;;7.66;98.57;96541.22;4350282;32;20083;-81
2024/01/04 02:20:20;;;;;;;9.00;3.53;;;;;;;7.62;99.36;96537.12;4349759;33;19970;-81
2024/01/04 02:22:48;;;;;;;;;;;;;;;7.78;98.77;96532.84;4350238;33;20114;-81
2024/01/04 02:25:15;;;;;;;9.15;3.70;;;;;;;7.66;99.50;96538.66;4349911;33;20232;-81
2024/01/04 02:27:42;;;;;;;13.35;3.25;;;;;;;7.93;97.96;96538.84;4349628;32;20434;-81
2024/01/04 02:30:11;;;;;;;12.20;3.58;;;;;;;7.85;97.83;96541.00;4349875;33;20075;-81
2024/01/04 02:32:38;;;;;;;13.05;3.92;;;;;;;8.28;95.41;96546.28;4349943;32;20340;-81
2024/01/04 02:35:06;;;;;;;14.85;3.55;;;;;;;7.96;95.85;96538.66;4349397;32;20166;-81
2024/01/04 02:37:33;;;;;;;12.75;3.70;;;;;;;8.23;95.21;96561.16;4350003;32;20126;-81
2024/01/04 02:39:59;;;;;;;;;;;;;;;8.46;93.67;96573.53;4350003;32;20154;-81
2024/01/04 02:42:26;;;;;;;13.68;4.00;;;;;;;8.49;92.68;96567.38;4349590;33;19994;-81
2024/01/04 02:44:53;;;;;;;12.60;3.47;;;;;;;8.38;92.57;96558.53;4349784;32;20422;-81
2024/01/04 02:47:20;;;;;;;10.73;3.70;;;;;;;8.22;93.61;96547.47;4349778;32;20101;-81
2024/01/04 02:49:47;;;;;;;11.65;3.97;;;;;;;8.02;95.67;96545.22;4349520;32;20113;-81
2024/01/04 02:52:14;;;;;;;10.55;3.62;;;;;;;8.23;94.10;96549.13;4349789;32;20095;-81
2024/01/04 02:54:41;;;;;;;9.57;3.12;;;;;;;8.18;94.73;96558.00;4349420;32;20150;-81
2024/01/04 02:57:08;;;;;;;11.12;2.97;;;;;;;8.18;94.20;96560.56;4349436;33;20110;-81
2024/01/04 02:59:35;;;;;;;9.85;3.17;;;;;;;8.12;94.11;96570.28;4349812;32;20076;-81
2024/01/04 03:02:02;;;;;;;;;;;;;;;8.29;92.56;96576.19;4349526;32;21322;-82
2024/01/04 03:04:28;;;;;;;12.17;4.17;;;;;;;8.28;91.25;96559.94;4349451;33;20362;-82
2024/01/04 03:06:55;;;;;;;10.75;3.30;;;;;;;8.31;90.70;96535.84;4349398;32;20455;-81
2024/01/04 03:09:22;;;;;;;13.30;3.72;;;;;;;7.77;92.08;96513.22;4349195;32;20084;-82
2024/01/04 03:11:49;;;;;;;14.60;3.87;;;;;;;7.63;93.60;96530.28;4349546;32;20106;-82
2024/01/04 03:14:16;;;;;;;12.60;3.30;;;;;;;8.08;92.53;96534.56;4349557;32;20099;-82
2024/01/04 03:16:43;;;;;;;8.38;2.90;;;;;;;7.30;96.73;96543.19;4348658;33;20106;-81
2024/01/04 03:19:09;;;;;;;;;;;;;;;8.04;95.03;96540.81;4349734;32;20080;-82
2024/01/04 03:21:37;;;;;;;11.43;3.37;;;;;;;8.18;93.60;96552.84;4349325;33;19979;-81
2024/01/04 03:24:03;;;;;;;;;;;;;;;8.65;89.68;96574.13;4349139;32;20109;-81
2024/01/04 03:26:30;;;;;;;8.85;3.37;;;;;;;8.54;89.75;96576.50;4348993;33;19971;-81
2024/01/04 03:28:57;;;;;;;10.85;3.33;;;;;;;8.32;91.57;96569.16;4349276;33;20145;-82
2024/01/04 03:31:24;;;;;;;;;;;;;;;8.55;90.26;96565.28;4349237;32;20104;-82
2024/01/04 03:33:51;;;;;;;10.15;2.90;;;;;;;8.56;88.64;96558.41;4349304;33;19996;-82
2024/01/04 03:36:19;;;;;;;12.68;3.42;;;;;;;9.00;86.57;96563.50;4348825;32;20126;-81
2024/01/04 03:38:45;;;;;;;;;;;;;;;8.49;88.56;96559.66;4349211;33;20598;-81
2024/01/04 03:41:12;;;;;;;8.73;2.83;;;;;;;8.57;88.35;96554.91;4349054;33;20019;-81
2024/01/04 03:43:39;;;;;;;8.75;2.83;;;;;;;8.27;88.25;96566.00;4348892;33;20632;-81
2024/01/04 03:46:08;;;;;;;9.25;3.20;;;;;;;8.44;88.03;96561.69;4348489;32;20092;-81
2024/01/04 03:48:35;;;;;;;11.05;3.65;;;;;;;8.04;90.35;96567.31;4349013;33;20099;-82
2024/01/04 03:51:03;;;;;;;9.77;3.05;;;;;;;8.65;86.28;96561.28;4348575;32;20088;-81
2024/01/04 03:53:30;;;;;;;10.02;2.97;;;;;;;8.21;87.96;96563.81;4348914;32;20119;-81
2024/01/04 03:55:57;;;;;;;;;;;;;;;8.25;88.80;96555.00;4348934;33;20113;-81
2024/01/04 03:58:23;;;;;;;9.50;3.10;;;;;;;8.22;89.48;96565.47;4348614;33;20038;-81
2024/01/04 04:00:53;;;;;;;11.38;3.00;;;;;;;8.45;88.59;96579.59;4348816;33;20163;-81
2024/01/04 04:03:20;;;;;;;11.55;3.35;;;;;;;8.55;88.60;96585.03;4348688;32;20099;-81
2024/01/04 04:05:47;;;;;;;12.13;3.80;;;;;;;8.22;91.37;96575.75;4349175;32;20109;-81
2024/01/04 04:08:14;;;;;;;9.20;2.87;;;;;;;8.65;89.28;96584.41;4350912;32;20123;-81
2024/01/04 04:10:42;;;;;;;8.20;2.80;;;;;;;8.53;88.84;96589.44;4350891;33;20100;-81
2024/01/04 04:13:09;;;;;;;12.90;3.22;;;;;;;8.62;88.19;96579.47;4350621;33;20118;-81
2024/01/04 04:15:36;;;;;;;14.32;3.15;;;;;;;8.64;87.87;96587.91;4350373;33;20087;-81
2024/01/04 04:18:03;;;;;;;;;;;;;;;8.51;87.78;96575.84;4351120;32;20104;-81
2024/01/04 04:20:30;;;;;;;10.75;3.47;;;;;;;8.52;87.64;96573.19;4349484;33;19999;-82
2024/01/04 04:22:57;;;;;;;13.40;3.92;;;;;;;8.73;87.28;96586.53;4349669;33;20171;-81
2024/01/04 04:25:24;;;;;;;;;;;;;;;8.85;86.98;96585.81;4350945;32;20095;-81
2024/01/04 04:27:50;;;;;;;10.07;3.17;;;;;;;8.89;86.45;96592.44;4350540;33;19971;-81
2024/01/04 04:30:19;;;;;;;10.57;3.47;;;;;;;8.78;87.42;96589.66;4350809;33;20103;-81
2024/01/04 04:32:46;;;;;;;10.95;3.40;;;;;;;8.76;87.69;96590.69;4350864;32;20087;-81
2024/01/04 04:35:14;;;;;;;11.10;3.20;;;;;;;8.74;87.17;96597.66;4350259;32;20111;-81
2024/01/04 04:37:41;;;;;;;10.45;3.25;;;;;;;8.68;86.45;96589.38;4350947;32;20102;-81
2024/01/04 04:40:08;;;;;;;11.63;4.68;;;;;;;8.62;87.19;96596.63;4349200;33;20117;-81
2024/01/04 04:42:39;;;;;;;13.00;3.28;;;;;;;8.47;87.54;96595.75;4350762;33;20095;-81
2024/01/04 04:45:06;;;;;;;9.68;3.28;;;;;;;8.58;86.74;96613.94;4350416;33;20447;-81
2024/01/04 04:47:33;;;;;;;10.48;3.12;;;;;;;8.36;87.80;96604.06;4350327;32;20080;-81
2024/01/04 04:50:00;;;;;;;12.85;3.42;;;;;;;8.31;88.45;96621.47;4349463;33;20122;-81
2024/01/04 04:52:27;;;;;;;;;;;;;;;8.40;88.01;96627.88;4350960;32;20094;-81
2024/01/04 04:54:54;;;;;;;13.25;3.78;;;;;;;8.23;89.22;96635.66;4350209;33;19990;-81
2024/01/04 04:57:20;;;;;;;;;;;;;;;8.21;89.39;96645.19;4350915;33;20518;-81
2024/01/04 04:59:47;;;;;;;13.75;3.17;;;;;;;8.21;89.21;96640.06;4350619;33;19975;-81
2024/01/04 05:02:14;;;;;;;15.77;3.87;;;;;;;8.20;88.99;96640.97;4350316;32;20494;-81
2024/01/04 05:04:43;;;;;;;9.15;2.90;;;;;;;8.33;87.66;96645.34;4350310;33;20431;-82
2024/01/04 05:07:10;;;;;;;9.02;2.90;;;;;;;8.54;86.82;96638.19;4350409;32;20444;-81
2024/01/04 05:09:37;;;;;;;9.80;3.25;;;;;;;8.44;87.79;96656.78;4350362;33;20156;-81
2024/01/04 05:12:04;;;;;;;9.73;3.40;;;;;;;8.34;89.46;96661.59;4350567;32;20096;-81
2024/01/04 05:14:31;;;;;;;10.90;3.12;;;;;;;8.20;90.62;96649.50;4350284;33;20445;-82
2024/01/04 05:16:57;;;;;;;;;;;;;;;8.07;91.01;96635.66;4349258;32;20154;-81
2024/01/04 05:19:24;;;;;;;10.15;3.03;;;;;;;8.01;91.29;96646.28;4350671;33;20042;-81
2024/01/04 05:21:52;;;;;;;10.23;3.90;;;;;;;8.08;90.76;96658.72;4350431;32;20348;-81
2024/01/04 05:24:19;;;;;;;14.27;3.35;;;;;;;8.03;90.98;96660.69;4349980;33;20121;-82
2024/01/04 05:26:47;;;;;;;12.55;3.30;;;;;;;8.04;90.40;96649.50;4350270;32;20125;-81
2024/01/04 05:29:14;;;;;;;16.98;3.40;;;;;;;7.83;90.74;96638.66;4350094;32;20099;-81
2024/01/04 05:31:40;;;;;;;11.18;3.33;;;;;;;8.11;90.00;96655.16;4350314;32;20193;-81
2024/01/04 05:34:07;;;;;;;8.60;2.78;;;;;;;8.29;88.26;96659.25;4350437;32;20102;-82
2024/01/04 05:36:35;;;;;;;12.37;2.78;;;;;;;8.39;86.92;96670.72;4349819;33;20103;-81
2024/01/04 05:39:03;;;;;;;9.00;3.12;;;;;;;8.47;85.47;96677.19;4349252;33;20455;-81
2024/01/04 05:41:30;;;;;;;8.80;3.08;;;;;;;8.30;85.63;96681.50;4350366;32;20106;-81
2024/01/04 05:43:56;;;;;;;;;;;;;;;8.02;87.01;96689.03;4350192;32;20110;-82
2024/01/04 05:46:23;;;;;;;9.43;3.33;;;;;;;7.30;91.82;96679.16;4350248;33;20326;-82
2024/01/04 05:48:50;;;;;;;10.18;3.20;;;;;;;7.38;91.58;96685.56;4350319;32;20142;-81
2024/01/04 05:51:18;;;;;;;12.35;4.00;;;;;;;7.66;89.90;96684.97;4349945;32;20095;-81
2024/01/04 05:53:45;;;;;;;11.23;4.37;;;;;;;7.25;92.33;96687.13;4350165;32;20146;-81
2024/01/04 05:56:12;;;;;;;10.88;3.58;;;;;;;7.16;94.10;96685.84;4350101;32;20088;-81
2024/01/04 05:58:38;;;;;;;11.90;3.83;;;;;;;6.91;95.44;96696.50;4349863;33;20166;-81
2024/01/04 06:01:06;;;;;;;13.62;3.47;;;;;;;6.76;96.63;96694.69;4350159;32;20091;-81
2024/01/04 06:03:33;;;;;;;12.50;4.03;;;;;;;6.71;96.24;96694.09;4350030;32;20083;-82
2024/01/04 06:06:00;;;;;;;11.27;3.65;;;;;;;6.99;95.83;96692.72;4349795;32;20142;-81
2024/01/04 06:08:27;;;;;;;13.70;3.78;;;;;;;7.15;95.24;96691.06;4350123;32;20379;-82
2024/01/04 06:10:53;;;;;;;;;;;;;;;7.38;93.62;96690.69;4350486;32;20113;-81
2024/01/04 06:13:26;;;;;;;9.32;3.40;;;;;;;7.16;94.15;96690.97;4349920;33;19967;-82
2024/01/04 06:15:53;;;;;;;11.25;3.70;;;;;;;7.32;92.76;96690.19;4349765;32;20099;-82
2024/01/04 06:18:20;;;;;;;12.75;3.53;;;;;;;7.15;92.08;96699.56;4349591;32;20159;-82
2024/01/04 06:20:48;;;;;;;13.77;3.97;;;;;;;7.33;91.91;96697.78;4350309;33;20111;-81
2024/01/04 06:23:15;;;;;;;11.60;3.67;;;;;;;7.19;93.04;96705.38;4350145;32;20091;-82
2024/01/04 06:25:42;;;;;;;11.90;3.87;;;;;;;6.61;96.02;96706.53;4349742;33;20111;-82
2024/01/04 06:28:09;;;;;;;;;;;;;;;6.51;96.77;96701.91;4345421;32;149160;-81
2024/01/04 06:30:36;;;;;;;8.40;3.60;;;;;;;7.02;94.04;96711.38;4350200;33;19983;-82
2024/01/04 06:33:03;;;;;;;11.40;3.65;;;;;;;7.21;92.04;96713.81;4349662;32;20149;-81
2024/01/04 06:35:30;;;;;;;12.27;3.35;;;;;;;7.14;92.60;96712.47;4349790;33;20090;-82
2024/01/04 06:37:57;;;;;;;13.20;3.90;;;;;;;7.27;91.99;96718.66;4349894;33;20162;-81
2024/01/04 06:40:24;;;;;;;10.07;3.33;;;;;;;7.31;91.55;96716.75;4349547;33;20111;-82
2024/01/04 06:42:55;;;;;;;12.02;3.50;;;;;;;7.22;92.06;96718.03;4349880;33;20534;-81
2024/01/04 06:45:22;;;;;;;11.88;3.67;;;;;;;7.34;91.16;96729.44;4349515;33;20151;-81
2024/01/04 06:47:49;;;;;;;12.93;4.03;;;;;;;7.53;90.37;96730.13;4349463;32;20443;-82
2024/01/04 06:50:17;;;;;;;12.60;3.53;;;;;;;7.65;88.58;96741.50;4349732;32;20104;-83
2024/01/04 06:52:45;;;;;;;10.93;3.42;;;;;;;7.50;88.51;96725.16;4349691;32;20087;-83
2024/01/04 06:55:13;;;;;;;15.38;3.65;;;;;;;7.20;90.17;96717.28;4349001;33;20109;-80
2024/01/04 06:57:40;;;;;;;11.60;3.00;;;;;;;7.55;88.14;96725.78;4348470;33;20111;-80
2024/01/04 07:00:08;;;;;;;9.40;2.97;;;;;;;7.62;87.47;96727.09;4349673;33;20095;-80
2024/01/04 07:02:35;;;;;;;8.60;3.00;;;;;;;7.59;86.90;96739.28;4349855;32;20118;-82
2024/01/04 07:05:06;;;;;;;12.55;3.47;;;;;;;7.49;86.37;96731.22;4350199;32;20192;-82
2024/01/04 07:07:34;;;;;;;12.65;3.03;;;;;;;7.66;85.90;96754.28;4349098;32;20151;-83
2024/01/04 07:10:01;;;;;;;10.10;3.03;;;;;;;7.82;84.72;96756.88;4349375;32;20584;-84
2024/01/04 07:12:28;;;;;;;9.15;3.17;;;;;;;7.89;84.32;96750.53;4349976;33;20102;-85
2024/01/04 07:14:55;;;;;;;9.63;2.50;;;;;;;8.02;82.73;96750.69;4348999;32;20083;-85
2024/01/04 07:17:23;;;;;;;7.32;2.80;;;;;;;8.14;82.36;96750.03;4350325;32;20096;-85
2024/01/04 07:19:50;;;;;;;10.38;3.17;;;;;;;8.07;82.81;96746.13;4349691;33;20162;-85
2024/01/04 07:22:17;;;;;;;10.82;2.87;;;;;;;8.08;82.92;96747.78;4349189;32;20162;-84
2024/01/04 07:24:44;;;;;;;10.93;2.75;;;;;;;7.98;84.00;96746.63;4359000;27;20075;-85
2024/01/04 07:27:11;;;;;;;10.70;3.70;;;;;;;7.98;84.19;96744.91;4349103;33;20103;-86
2024/01/04 07:29:39;;;;;;;12.48;3.75;;;;;;;8.19;83.62;96747.19;4349198;32;20163;-86
2024/01/04 07:32:06;;;;;;;10.80;3.35;;;;;;;8.22;84.42;96737.63;4349326;32;20106;-85
2024/01/04 07:34:37;;;;;;;9.27;2.90;;;;;;;8.23;85.29;96730.72;4348629;33;20075;-85
2024/01/04 07:37:05;;;;;;;9.95;3.17;;;;;;;8.98;84.77;96725.66;4348502;33;20068;-85
2024/01/04 07:39:33;;;;;;;6.78;2.45;;;;;;;10.15;77.69;96735.00;4351048;32;20140;-85
2024/01/04 07:42:00;;;;;;;9.38;2.78;;;;;;;10.92;71.93;96731.81;4352253;32;20142;-85
2024/01/04 07:44:27;;;;;;;7.97;2.40;;;;;;;11.34;70.62;96723.94;4351854;32;20475;-84
2024/01/04 07:46:53;;;;;;;12.40;2.78;;;;;;;11.34;69.72;96717.03;4350865;32;20151;-83
2024/01/04 07:49:20;;;;;;;7.40;2.62;;;;;;;11.63;68.39;96720.25;4351123;33;20103;-82
2024/01/04 07:51:48;;;;;;;9.32;2.53;;;;;;;11.88;67.50;96722.81;4350715;32;20083;-82
2024/01/04 07:54:15;;;;;;;11.18;3.28;;;;;;;11.21;69.30;96719.59;4351049;33;20126;-83
2024/01/04 07:56:42;;;;;;;9.45;3.03;;;;;;;11.20;69.61;96719.72;4350391;33;20095;-83
2024/01/04 07:59:09;;;;;;;10.35;3.10;;;;;;;10.83;71.58;96721.28;4351053;32;20109;-83
2024/01/04 08:01:36;;;;;;;8.95;3.33;;;;;;;10.31;73.18;96722.00;4349847;33;20142;-82
2024/01/04 08:04:06;;;;;;;9.75;2.75;;;;;;;10.10;74.43;96730.16;4350371;32;20125;-81
2024/01/04 08:06:33;;;;;;;9.90;2.75;;;;;;;9.48;76.61;96727.03;4350653;32;20152;-82
2024/01/04 08:09:00;;;;;;;11.12;3.45;;;;;;;9.79;75.47;96736.34;4350966;32;20114;-82
2024/01/04 08:11:26;;;;;;;9.77;3.25;;;;;;;9.88;75.20;96741.84;4349468;33;20417;-82
2024/01/04 08:13:53;;;;;;;;;;;;;;;9.93;74.93;96740.66;4351105;32;20091;-81
2024/01/04 08:16:20;;;;;;;8.80;3.35;;;;;;;9.91;75.30;96745.06;4350782;32;19979;-82
2024/01/04 08:18:47;;;;;;;;;;;;;;;9.93;75.14;96740.66;4350821;32;20158;-81
2024/01/04 08:21:14;;;;;;;12.40;3.90;;;;;;;9.72;76.10;96749.66;4349740;33;20314;-81
2024/01/04 08:23:41;;;;;;;7.65;2.70;;;;;;;10.28;74.14;96751.38;4349693;33;20087;-81
2024/01/04 08:26:10;;;;;;;9.40;2.58;;;;;;;10.20;74.02;96752.75;4349019;33;20171;-81
2024/01/04 08:28:37;;;;;;;9.55;3.08;;;;;;;9.42;77.26;96754.87;4350704;32;20111;-81
2024/01/04 08:31:04;;;;;;;9.02;2.50;;;;;;;9.32;78.35;96756.34;4350813;32;20101;-81
2024/01/04 08:33:32;;;;;;;8.73;2.58;;;;;;;9.41;78.25;96761.78;4349302;33;20122;-81
2024/01/04 08:35:59;;;;;;;8.20;2.83;;;;;;;9.46;77.80;96757.22;4350530;32;20103;-81
2024/01/04 08:38:26;;;;;;;8.05;2.70;;;;;;;9.53;78.27;96755.91;4350705;32;20108;-82
2024/01/04 08:40:53;;;;;;;10.20;2.95;;;;;;;9.35;79.64;96754.41;4350449;32;20098;-82
2024/01/04 08:43:20;;;;;;;9.27;2.87;;;;;;;9.24;80.87;96759.34;4350645;32;20076;-82
2024/01/04 08:45:48;;;;;;;9.15;2.72;;;;;;;9.27;80.14;96749.72;4350002;33;20573;-82
2024/01/04 08:48:15;;;;;;;9.07;2.50;;;;;;;9.34;79.56;96760.47;4350556;32;20126;-82
2024/01/04 08:50:42;;;;;;;8.35;2.50;;;;;;;9.61;77.86;96770.09;4350604;32;20422;-82
2024/01/04 08:53:10;;;;;;;9.38;3.20;;;;;;;9.71;77.26;96774.59;4350280;32;20439;-81
2024/01/04 08:55:37;;;;;;;11.23;3.10;;;;;;;9.73;77.06;96777.91;4350505;32;20431;-81
2024/01/04 08:58:04;;;;;;;8.13;2.50;;;;;;;9.78;76.77;96782.78;4350688;33;20186;-81
2024/01/04 09:00:34;;;;;;;9.38;2.42;;;;;;;9.71;76.68;96787.47;4350177;32;20130;-81
2024/01/04 09:03:01;;;;;;;7.93;2.28;;;;;;;9.82;76.41;96779.94;4349456;33;20146;-81
2024/01/04 09:05:29;;;;;;;5.65;2.08;;;;;;;9.76;75.91;96789.78;4350350;32;20100;-80
2024/01/04 09:07:56;;;;;;;8.98;2.20;;;;;;;9.70;75.84;96783.25;4350188;32;20113;-82
2024/01/04 09:10:24;;;;;;;7.05;2.20;;;;;;;9.86;74.85;96781.41;4350538;32;20101;-82
2024/01/04 09:12:51;;;;;;;9.48;2.22;;;;;;;10.02;74.16;96788.22;4350446;32;20095;-82
2024/01/04 09:15:19;;;;;;;4.55;1.80;;;;;;;10.21;74.09;96780.19;4349911;33;20162;-82
2024/01/04 09:17:46;;;;;;;6.45;2.12;;;;;;;10.48;72.78;96785.44;4349195;33;20111;-82
2024/01/04 09:20:16;;;;;;;6.10;1.90;;;;;;;10.99;69.71;96776.97;4350294;32;20126;-81
2024/01/04 09:22:43;;;;;;;8.57;2.20;;;;;;;11.54;67.79;96785.44;4350103;32;20113;-80
2024/01/04 09:25:10;;;;;;;7.50;1.90;;;;;;;11.82;65.66;96777.53;4349957;32;20167;-80
2024/01/04 09:27:37;;;;;;;7.78;2.20;;;;;;;11.93;65.23;96791.47;4350555;33;20461;-80
2024/01/04 09:30:04;;;;;;;7.10;2.10;;;;;;;11.96;64.68;96783.50;4350621;32;20091;-80
2024/01/04 09:32:31;;;;;;;7.87;2.20;;;;;;;12.26;64.02;96784.00;4350371;32;20087;-81
2024/01/04 09:34:58;;;;;;;7.70;2.33;;;;;;;12.48;63.46;96787.66;4349664;32;20625;-81
2024/01/04 09:37:25;;;;;;;6.72;2.20;;;;;;;12.59;64.30;96790.31;4350088;33;20163;-81
2024/01/04 09:39:54;;;;;;;6.93;2.37;;;;;;;12.54;64.65;96784.63;4350228;32;20153;-81
2024/01/04 09:42:23;;;;;;;6.53;2.28;;;;;;;12.75;64.84;96783.09;4350058;32;20083;-80
2024/01/04 09:44:53;;;;;;;9.10;2.83;;;;;;;12.84;65.70;96787.63;4350039;32;20096;-80
2024/01/04 09:47:22;;;;;;;8.93;3.00;;;;;;;12.89;64.99;96792.50;4349275;33;20125;-82
2024/01/04 09:49:51;;;;;;;8.07;2.20;;;;;;;12.44;66.69;96795.66;4348941;33;20149;-82
2024/01/04 09:52:19;;;;;;;7.25;2.50;;;;;;;12.66;66.67;96812.25;4350229;32;20105;-81
2024/01/04 09:54:46;;;;;;;9.05;2.40;;;;;;;12.48;67.68;96800.59;4350300;32;20110;-81
2024/01/04 09:57:13;;;;;;;7.10;2.05;;;;;;;12.88;68.20;96802.03;4349871;33;20107;-82
2024/01/04 09:59:40;;;;;;;7.22;2.08;;;;;;;13.25;66.95;96809.72;4350262;32;20129;-83
2024/01/04 10:02:11;;;;;;;7.25;2.45;;;;;;;13.97;63.18;96806.97;4350215;32;20125;-82
2024/01/04 10:04:41;;;;;;;5.82;2.00;;;;;;;13.85;63.17;96813.91;4349035;32;20151;-82
2024/01/04 10:07:09;;;;;;;9.68;2.55;;;;;;;13.80;63.89;96814.25;4349987;32;20095;-83
2024/01/04 10:10:08;;;;;;;8.30;2.58;;;;;;;13.75;64.78;96812.94;4349065;33;20166;-82
2024/01/04 10:12:36;;;;;;;6.53;2.50;;;;;;;13.87;65.89;96815.44;4349126;33;20084;-82
2024/01/04 10:15:04;;;;;;;5.78;2.62;;;;;;;13.70;67.17;96828.00;4349951;33;20134;-82
2024/01/04 10:17:32;;;;;;;9.80;1.95;;;;;;;13.52;65.87;96825.03;4349905;32;20110;-82
2024/01/04 10:19:59;;;;;;;5.93;2.08;;;;;;;13.64;64.32;96805.97;4350223;32;20141;-82
2024/01/04 10:22:26;;;;;;;6.82;2.20;;;;;;;13.62;64.69;96807.03;4350059;32;20154;-82
2024/01/04 10:24:54;;;;;;;6.75;2.00;;;;;;;13.60;63.21;96805.34;4348049;33;20122;-82
2024/01/04 10:27:22;;;;;;;5.22;1.80;;;;;;;13.57;64.39;96805.59;4350174;32;20114;-82
2024/01/04 10:29:51;;;;;;;7.70;2.40;;;;;;;13.41;63.38;96802.50;4350368;32;20087;-82
2024/01/04 10:32:19;;;;;;;6.37;2.15;;;;;;;13.66;62.14;96800.66;4349818;33;20138;-83
2024/01/04 10:34:45;;;;;;;6.85;2.20;;;;;;;13.93;61.04;96798.59;4349794;33;20095;-83
2024/01/04 10:37:22;;;;;;;7.32;2.50;;;;;;;14.23;60.36;96800.59;4349730;32;20443;-83
2024/01/04 10:39:56;;;;;;;6.67;2.37;;;;;;;14.26;60.05;96809.94;4349700;32;20095;-82
2024/01/04 10:42:24;;;;;;;7.93;2.20;;;;;;;14.43;58.21;96806.84;4349834;32;20083;-82
2024/01/04 10:44:52;;;;;;;7.47;1.90;;;;;;;14.63;57.00;96807.91;4349255;32;20103;-81
2024/01/04 10:47:19;;;;;;;8.27;2.40;;;;;;;14.12;57.92;96804.03;4349791;32;20129;-81
2024/01/04 10:49:48;;;;;;;6.12;2.08;;;;;;;14.58;57.00;96804.88;4349660;32;20158;-82
2024/01/04 10:52:17;;;;;;;6.62;2.00;;;;;;;14.46;56.41;96807.47;4348439;33;20098;-81
2024/01/04 10:54:44;;;;;;;5.32;2.00;;;;;;;14.74;54.55;96800.94;4349636;33;20115;-82
2024/01/04 10:57:12;;;;;;;6.62;1.90;;;;;;;14.49;55.77;96793.44;4349571;32;20378;-82
2024/01/04 10:59:43;;;;;;;6.82;2.00;;;;;;;14.92;54.70;96784.84;4349383;32;20101;-82
2024/01/04 11:02:13;;;;;;;5.57;1.70;;;;;;;15.23;53.13;96785.78;4348610;33;20150;-82
2024/01/04 11:04:40;;;;;;;4.65;1.75;;;;;;;15.07;52.92;96783.59;4349418;33;20154;-81
2024/01/04 11:07:08;;;;;;;4.12;1.62;;;;;;;15.14;52.40;96782.16;4349182;32;20095;-82
2024/01/04 11:09:36;;;;;;;4.20;1.62;;;;;;;15.05;51.08;96775.09;4349613;32;20083;-82
2024/01/04 11:12:04;;;;;;;4.45;1.55;;;;;;;14.54;51.94;96778.31;4349588;32;20079;-82
2024/01/04 11:14:31;;;;;;;3.30;1.45;;;;;;;14.47;52.60;96779.75;4347869;33;20122;-81
2024/01/04 11:17:07;;;;;;;4.72;1.60;;;;;;;14.36;53.20;96769.37;4350860;32;20173;-82
2024/01/04 11:20:00;;;;;;;4.18;1.40;;;;;;;14.35;53.43;96781.47;4351355;32;20102;-82
2024/01/04 11:22:36;;;;;;;4.95;1.80;;;;;;;14.69;51.95;96778.88;4351242;33;20095;-81
2024/01/04 11:25:24;;;;;;;3.22;1.40;;;;;;;15.00;50.93;96770.28;4350994;33;20166;-82
2024/01/04 11:27:51;;;;;;;5.10;1.55;;;;;;;15.30;50.78;96776.53;4350961;33;20442;-82
2024/01/04 11:30:18;;;;;;;4.03;1.50;;;;;;;15.51;49.37;96782.56;4351180;32;20110;-82
2024/01/04 11:32:45;;;;;;;6.72;3.15;;;;;;;15.73;50.18;96776.44;4351190;32;20463;-82
2024/01/04 11:35:12;;;;;;;3.03;1.30;;;;;;;16.03;46.94;96773.03;4350667;32;20099;-81
2024/01/04 11:37:39;;;;;;;5.85;1.60;;;;;;;16.08;47.72;96786.50;4349952;33;20351;-82
2024/01/04 11:40:07;;;;;;;6.47;1.92;;;;;;;15.75;47.02;96779.75;4351064;33;20105;-82
2024/01/04 11:42:36;;;;;;;3.85;1.52;;;;;;;15.52;46.75;96771.19;4350904;32;20127;-82